sensor_id;sensor_type;location;lat;lon;timestamp;temperature;humidity
22503;DHT22;11418;48.118;9.992;2023-08-17T00:02:07;17.80;99.90
22503;DHT22;11418;48.118;9.992;2023-08-17T00:06:08;17.90;99.90
22503;DHT22;11418;48.118;9.992;2023-08-17T00:10:09;17.90;99.90
22503;DHT22;11418;48.118;9.992;2023-08-17T00:14:09;17.80;99.90
22503;DHT22;11418;48.118;9.992;2023-08-17T00:18:10;17.60;99.90
22503;DHT22;11418;48.118;9.992;2023-08-17T00:22:11;17.50;99.90
22503;DHT22;11418;48.118;9.992;2023-08-17T00:26:11;17.40;99.90
22503;DHT22;11418;48.118;9.992;2023-08-17T00:30:12;17.30;99.90
22503;DHT22;11418;48.118;9.992;2023-08-17T00:34:13;17.20;99.90
22503;DHT22;11418;48.118;9.992;2023-08-17T00:38:13;17.20;99.90
22503;DHT22;11418;48.118;9.992;2023-08-17T00:42:14;17.10;99.90
22503;DHT22;11418;48.118;9.992;2023-08-17T00:46:14;17.10;99.90
22503;DHT22;11418;48.118;9.992;2023-08-17T00:50:15;16.90;99.90
22503;DHT22;11418;48.118;9.992;2023-08-17T00:54:23;16.80;99.90
22503;DHT22;11418;48.118;9.992;2023-08-17T00:58:24;16.70;99.90
22503;DHT22;11418;48.118;9.992;2023-08-17T01:02:24;16.80;99.90
22503;DHT22;11418;48.118;9.992;2023-08-17T01:06:25;16.90;99.90
22503;DHT22;11418;48.118;9.992;2023-08-17T01:11:36;16.90;99.90
22503;DHT22;11418;48.118;9.992;2023-08-17T01:15:19;16.90;99.90
22503;DHT22;11418;48.118;9.992;2023-08-17T01:19:25;16.90;99.90
22503;DHT22;11418;48.118;9.992;2023-08-17T01:23:27;16.90;99.90
22503;DHT22;11418;48.118;9.992;2023-08-17T01:27:36;16.80;99.90
22503;DHT22;11418;48.118;9.992;2023-08-17T01:31:54;16.70;99.90
22503;DHT22;11418;48.118;9.992;2023-08-17T01:36:05;16.70;99.90
22503;DHT22;11418;48.118;9.992;2023-08-17T01:40:08;16.80;99.90
22503;DHT22;11418;48.118;9.992;2023-08-17T01:44:10;16.90;99.90
22503;DHT22;11418;48.118;9.992;2023-08-17T01:48:11;17.20;99.90
22503;DHT22;11418;48.118;9.992;2023-08-17T01:52:11;16.90;99.90
22503;DHT22;11418;48.118;9.992;2023-08-17T01:56:12;16.80;99.90
22503;DHT22;11418;48.118;9.992;2023-08-17T02:00:13;16.70;99.90
22503;DHT22;11418;48.118;9.992;2023-08-17T02:04:14;16.70;99.90
22503;DHT22;11418;48.118;9.992;2023-08-17T02:08:15;16.50;99.90
22503;DHT22;11418;48.118;9.992;2023-08-17T02:12:15;16.50;99.90
22503;DHT22;11418;48.118;9.992;2023-08-17T02:16:16;16.50;99.90
22503;DHT22;11418;48.118;9.992;2023-08-17T02:20:16;16.50;99.90
22503;DHT22;11418;48.118;9.992;2023-08-17T02:24:17;16.50;99.90
22503;DHT22;11418;48.118;9.992;2023-08-17T02:28:18;16.40;99.90
22503;DHT22;11418;48.118;9.992;2023-08-17T02:32:18;16.40;99.90
22503;DHT22;11418;48.118;9.992;2023-08-17T02:36:19;16.30;99.90
22503;DHT22;11418;48.118;9.992;2023-08-17T02:40:19;16.20;99.90
22503;DHT22;11418;48.118;9.992;2023-08-17T02:44:20;16.20;99.90
22503;DHT22;11418;48.118;9.992;2023-08-17T02:48:21;16.30;99.90
22503;DHT22;11418;48.118;9.992;2023-08-17T02:52:22;16.00;99.90
22503;DHT22;11418;48.118;9.992;2023-08-17T02:56:22;15.90;99.90
22503;DHT22;11418;48.118;9.992;2023-08-17T03:00:23;15.90;99.90
22503;DHT22;11418;48.118;9.992;2023-08-17T03:04:23;16.00;99.90
22503;DHT22;11418;48.118;9.992;2023-08-17T03:08:24;16.00;99.90
22503;DHT22;11418;48.118;9.992;2023-08-17T03:12:25;16.20;99.90
22503;DHT22;11418;48.118;9.992;2023-08-17T03:16:29;16.10;99.90
22503;DHT22;11418;48.118;9.992;2023-08-17T03:20:30;16.00;99.90
22503;DHT22;11418;48.118;9.992;2023-08-17T03:24:31;16.00;99.90
22503;DHT22;11418;48.118;9.992;2023-08-17T03:28:31;15.80;99.90
22503;DHT22;11418;48.118;9.992;2023-08-17T03:32:32;15.70;99.90
22503;DHT22;11418;48.118;9.992;2023-08-17T03:36:32;15.60;99.90
22503;DHT22;11418;48.118;9.992;2023-08-17T03:40:33;15.50;99.90
22503;DHT22;11418;48.118;9.992;2023-08-17T03:44:33;15.40;99.90
22503;DHT22;11418;48.118;9.992;2023-08-17T03:48:34;15.40;99.90
22503;DHT22;11418;48.118;9.992;2023-08-17T03:52:34;15.30;99.90
22503;DHT22;11418;48.118;9.992;2023-08-17T03:56:35;15.30;99.90
22503;DHT22;11418;48.118;9.992;2023-08-17T04:00:35;15.20;99.90
22503;DHT22;11418;48.118;9.992;2023-08-17T04:04:36;15.10;99.90
22503;DHT22;11418;48.118;9.992;2023-08-17T04:08:37;15.30;99.90
22503;DHT22;11418;48.118;9.992;2023-08-17T04:12:38;15.40;99.90
22503;DHT22;11418;48.118;9.992;2023-08-17T04:16:38;15.50;99.90
22503;DHT22;11418;48.118;9.992;2023-08-17T04:20:39;15.50;99.90
22503;DHT22;11418;48.118;9.992;2023-08-17T04:24:39;15.40;99.90
22503;DHT22;11418;48.118;9.992;2023-08-17T04:28:40;15.50;99.90
22503;DHT22;11418;48.118;9.992;2023-08-17T04:32:41;15.40;99.90
22503;DHT22;11418;48.118;9.992;2023-08-17T04:36:41;15.30;99.90
22503;DHT22;11418;48.118;9.992;2023-08-17T04:40:42;15.20;99.90
22503;DHT22;11418;48.118;9.992;2023-08-17T04:44:42;15.10;99.90
22503;DHT22;11418;48.118;9.992;2023-08-17T04:48:43;15.20;99.90
22503;DHT22;11418;48.118;9.992;2023-08-17T04:52:44;15.40;99.90
22503;DHT22;11418;48.118;9.992;2023-08-17T04:56:45;15.40;99.90
22503;DHT22;11418;48.118;9.992;2023-08-17T05:00:46;15.40;99.90
22503;DHT22;11418;48.118;9.992;2023-08-17T05:04:46;15.40;99.90
22503;DHT22;11418;48.118;9.992;2023-08-17T05:08:47;15.50;99.90
22503;DHT22;11418;48.118;9.992;2023-08-17T05:12:48;15.60;99.90
22503;DHT22;11418;48.118;9.992;2023-08-17T05:16:48;15.80;99.90
22503;DHT22;11418;48.118;9.992;2023-08-17T05:20:49;16.00;99.90
22503;DHT22;11418;48.118;9.992;2023-08-17T05:24:49;16.10;99.90
22503;DHT22;11418;48.118;9.992;2023-08-17T05:28:50;16.20;99.90
22503;DHT22;11418;48.118;9.992;2023-08-17T05:32:50;16.40;99.90
22503;DHT22;11418;48.118;9.992;2023-08-17T05:36:51;16.50;99.90
22503;DHT22;11418;48.118;9.992;2023-08-17T05:40:56;16.50;99.90
22503;DHT22;11418;48.118;9.992;2023-08-17T05:44:57;16.80;99.90
22503;DHT22;11418;48.118;9.992;2023-08-17T05:48:57;16.90;99.90
22503;DHT22;11418;48.118;9.992;2023-08-17T05:52:59;17.30;99.90
22503;DHT22;11418;48.118;9.992;2023-08-17T05:57:01;17.90;99.90
22503;DHT22;11418;48.118;9.992;2023-08-17T06:01:06;18.70;99.90
22503;DHT22;11418;48.118;9.992;2023-08-17T06:05:07;19.70;99.90
22503;DHT22;11418;48.118;9.992;2023-08-17T06:09:09;21.30;99.90
22503;DHT22;11418;48.118;9.992;2023-08-17T06:13:09;22.10;99.90
22503;DHT22;11418;48.118;9.992;2023-08-17T06:17:10;22.80;99.90
22503;DHT22;11418;48.118;9.992;2023-08-17T06:21:10;23.40;99.90
22503;DHT22;11418;48.118;9.992;2023-08-17T06:25:11;23.70;99.90
22503;DHT22;11418;48.118;9.992;2023-08-17T06:29:11;23.50;99.90
22503;DHT22;11418;48.118;9.992;2023-08-17T06:33:12;23.60;99.90
22503;DHT22;11418;48.118;9.992;2023-08-17T06:37:12;24.50;99.90
22503;DHT22;11418;48.118;9.992;2023-08-17T06:41:13;24.80;99.90
22503;DHT22;11418;48.118;9.992;2023-08-17T06:45:14;25.50;99.90
22503;DHT22;11418;48.118;9.992;2023-08-17T06:49:18;25.50;99.90
22503;DHT22;11418;48.118;9.992;2023-08-17T06:53:19;25.80;99.90
22503;DHT22;11418;48.118;9.992;2023-08-17T06:57:19;25.90;99.90
22503;DHT22;11418;48.118;9.992;2023-08-17T07:01:22;26.20;99.90
22503;DHT22;11418;48.118;9.992;2023-08-17T07:05:22;26.50;99.90
22503;DHT22;11418;48.118;9.992;2023-08-17T07:09:24;26.50;99.90
22503;DHT22;11418;48.118;9.992;2023-08-17T07:13:24;26.90;99.90
22503;DHT22;11418;48.118;9.992;2023-08-17T07:17:25;27.10;99.90
22503;DHT22;11418;48.118;9.992;2023-08-17T07:21:25;26.80;99.90
22503;DHT22;11418;48.118;9.992;2023-08-17T07:25:26;26.70;99.90
22503;DHT22;11418;48.118;9.992;2023-08-17T07:29:26;27.30;99.90
22503;DHT22;11418;48.118;9.992;2023-08-17T07:33:27;27.80;99.90
22503;DHT22;11418;48.118;9.992;2023-08-17T07:37:27;28.50;99.90
22503;DHT22;11418;48.118;9.992;2023-08-17T07:41:33;28.00;99.90
22503;DHT22;11418;48.118;9.992;2023-08-17T07:45:33;27.30;99.90
22503;DHT22;11418;48.118;9.992;2023-08-17T07:49:34;27.70;99.90
22503;DHT22;11418;48.118;9.992;2023-08-17T07:53:34;27.80;99.90
22503;DHT22;11418;48.118;9.992;2023-08-17T07:57:35;27.90;99.90
22503;DHT22;11418;48.118;9.992;2023-08-17T08:01:35;28.30;99.90
22503;DHT22;11418;48.118;9.992;2023-08-17T08:05:36;27.90;99.90
22503;DHT22;11418;48.118;9.992;2023-08-17T08:09:37;28.20;99.90
22503;DHT22;11418;48.118;9.992;2023-08-17T08:13:37;28.50;99.90
22503;DHT22;11418;48.118;9.992;2023-08-17T08:17:38;28.30;99.90
22503;DHT22;11418;48.118;9.992;2023-08-17T08:21:38;28.40;99.90
22503;DHT22;11418;48.118;9.992;2023-08-17T08:25:39;28.10;99.90
22503;DHT22;11418;48.118;9.992;2023-08-17T08:29:39;28.40;99.90
22503;DHT22;11418;48.118;9.992;2023-08-17T08:33:40;28.70;99.90
22503;DHT22;11418;48.118;9.992;2023-08-17T08:37:40;29.00;99.90
22503;DHT22;11418;48.118;9.992;2023-08-17T08:41:41;29.10;99.90
22503;DHT22;11418;48.118;9.992;2023-08-17T08:45:42;29.50;99.90
22503;DHT22;11418;48.118;9.992;2023-08-17T08:49:59;29.60;99.90
22503;DHT22;11418;48.118;9.992;2023-08-17T08:54:04;29.40;99.90
22503;DHT22;11418;48.118;9.992;2023-08-17T08:58:08;28.70;99.90
22503;DHT22;11418;48.118;9.992;2023-08-17T09:02:10;28.30;99.90
22503;DHT22;11418;48.118;9.992;2023-08-17T09:06:12;28.50;99.90
22503;DHT22;11418;48.118;9.992;2023-08-17T09:10:13;28.50;99.90
22503;DHT22;11418;48.118;9.992;2023-08-17T09:14:16;28.80;99.90
22503;DHT22;11418;48.118;9.992;2023-08-17T09:18:17;29.30;99.90
22503;DHT22;11418;48.118;9.992;2023-08-17T09:22:39;29.70;99.90
22503;DHT22;11418;48.118;9.992;2023-08-17T09:26:40;29.90;99.90
22503;DHT22;11418;48.118;9.992;2023-08-17T09:30:55;30.10;99.90
22503;DHT22;11418;48.118;9.992;2023-08-17T09:34:57;30.20;99.90
22503;DHT22;11418;48.118;9.992;2023-08-17T09:38:57;30.30;99.90
22503;DHT22;11418;48.118;9.992;2023-08-17T09:42:58;30.80;99.90
22503;DHT22;11418;48.118;9.992;2023-08-17T09:46:59;31.20;99.90
22503;DHT22;11418;48.118;9.992;2023-08-17T09:51:00;30.90;99.90
22503;DHT22;11418;48.118;9.992;2023-08-17T09:55:02;30.70;99.90
22503;DHT22;11418;48.118;9.992;2023-08-17T09:59:04;30.70;99.90
22503;DHT22;11418;48.118;9.992;2023-08-17T10:03:05;30.90;99.90
22503;DHT22;11418;48.118;9.992;2023-08-17T10:07:06;30.70;99.90
22503;DHT22;11418;48.118;9.992;2023-08-17T10:11:07;30.30;99.90
22503;DHT22;11418;48.118;9.992;2023-08-17T10:15:11;30.60;99.90
22503;DHT22;11418;48.118;9.992;2023-08-17T10:19:31;30.40;99.90
22503;DHT22;11418;48.118;9.992;2023-08-17T10:23:35;30.70;99.90
22503;DHT22;11418;48.118;9.992;2023-08-17T10:27:36;31.00;99.90
22503;DHT22;11418;48.118;9.992;2023-08-17T10:31:38;30.30;99.90
22503;DHT22;11418;48.118;9.992;2023-08-17T10:35:39;30.80;99.90
22503;DHT22;11418;48.118;9.992;2023-08-17T10:39:45;31.70;99.90
22503;DHT22;11418;48.118;9.992;2023-08-17T10:43:57;31.90;99.90
22503;DHT22;11418;48.118;9.992;2023-08-17T10:52:08;31.50;99.90
22503;DHT22;11418;48.118;9.992;2023-08-17T10:56:11;31.40;99.90
22503;DHT22;11418;48.118;9.992;2023-08-17T11:00:15;32.00;99.90
22503;DHT22;11418;48.118;9.992;2023-08-17T11:04:16;31.90;99.90
22503;DHT22;11418;48.118;9.992;2023-08-17T11:08:28;31.60;99.90
22503;DHT22;11418;48.118;9.992;2023-08-17T11:12:29;31.70;99.90
22503;DHT22;11418;48.118;9.992;2023-08-17T11:16:30;32.50;99.90
22503;DHT22;11418;48.118;9.992;2023-08-17T11:20:30;33.60;99.90
22503;DHT22;11418;48.118;9.992;2023-08-17T11:24:31;33.50;99.90
22503;DHT22;11418;48.118;9.992;2023-08-17T11:28:33;34.10;99.90
22503;DHT22;11418;48.118;9.992;2023-08-17T11:32:36;34.00;99.90
22503;DHT22;11418;48.118;9.992;2023-08-17T11:36:37;34.40;99.90
22503;DHT22;11418;48.118;9.992;2023-08-17T11:40:38;36.20;99.90
22503;DHT22;11418;48.118;9.992;2023-08-17T11:44:38;36.20;99.10
22503;DHT22;11418;48.118;9.992;2023-08-17T11:48:40;34.90;98.30
22503;DHT22;11418;48.118;9.992;2023-08-17T11:52:41;34.60;98.70
22503;DHT22;11418;48.118;9.992;2023-08-17T11:56:41;34.20;99.90
22503;DHT22;11418;48.118;9.992;2023-08-17T12:00:45;34.00;98.60
22503;DHT22;11418;48.118;9.992;2023-08-17T12:04:46;34.70;99.90
22503;DHT22;11418;48.118;9.992;2023-08-17T12:08:47;35.30;99.10
22503;DHT22;11418;48.118;9.992;2023-08-17T12:12:48;36.70;93.60
22503;DHT22;11418;48.118;9.992;2023-08-17T12:16:49;36.80;94.70
22503;DHT22;11418;48.118;9.992;2023-08-17T12:20:53;38.10;93.50
22503;DHT22;11418;48.118;9.992;2023-08-17T12:24:54;36.90;92.20
22503;DHT22;11418;48.118;9.992;2023-08-17T12:28:56;35.70;93.90
22503;DHT22;11418;48.118;9.992;2023-08-17T12:32:56;35.40;94.40
22503;DHT22;11418;48.118;9.992;2023-08-17T12:36:57;36.50;90.90
22503;DHT22;11418;48.118;9.992;2023-08-17T12:40:57;37.60;92.10
22503;DHT22;11418;48.118;9.992;2023-08-17T12:44:58;38.40;85.80
22503;DHT22;11418;48.118;9.992;2023-08-17T12:48:59;39.00;90.60
22503;DHT22;11418;48.118;9.992;2023-08-17T12:52:59;39.20;83.10
22503;DHT22;11418;48.118;9.992;2023-08-17T12:57:00;39.00;79.40
22503;DHT22;11418;48.118;9.992;2023-08-17T13:01:03;39.20;76.70
22503;DHT22;11418;48.118;9.992;2023-08-17T13:05:03;38.20;81.30
22503;DHT22;11418;48.118;9.992;2023-08-17T13:09:05;36.80;90.30
22503;DHT22;11418;48.118;9.992;2023-08-17T13:13:06;36.00;89.60
22503;DHT22;11418;48.118;9.992;2023-08-17T13:17:06;36.40;88.50
22503;DHT22;11418;48.118;9.992;2023-08-17T13:21:07;37.20;88.70
22503;DHT22;11418;48.118;9.992;2023-08-17T13:25:07;36.80;86.80
22503;DHT22;11418;48.118;9.992;2023-08-17T13:29:08;38.10;86.00
22503;DHT22;11418;48.118;9.992;2023-08-17T13:33:09;39.80;73.70
22503;DHT22;11418;48.118;9.992;2023-08-17T13:37:11;40.60;69.10
22503;DHT22;11418;48.118;9.992;2023-08-17T13:41:12;39.50;74.80
22503;DHT22;11418;48.118;9.992;2023-08-17T13:45:12;37.30;80.20
22503;DHT22;11418;48.118;9.992;2023-08-17T13:49:13;35.20;87.00
22503;DHT22;11418;48.118;9.992;2023-08-17T13:53:13;31.50;88.70
22503;DHT22;11418;48.118;9.992;2023-08-17T13:57:14;27.10;94.10
22503;DHT22;11418;48.118;9.992;2023-08-17T14:01:14;24.80;99.90
22503;DHT22;11418;48.118;9.992;2023-08-17T14:05:15;23.40;99.90
22503;DHT22;11418;48.118;9.992;2023-08-17T14:09:15;22.00;99.90
22503;DHT22;11418;48.118;9.992;2023-08-17T14:13:16;20.60;99.90
22503;DHT22;11418;48.118;9.992;2023-08-17T14:17:17;19.40;99.90
22503;DHT22;11418;48.118;9.992;2023-08-17T14:21:17;18.10;99.90
22503;DHT22;11418;48.118;9.992;2023-08-17T14:25:18;17.70;99.90
22503;DHT22;11418;48.118;9.992;2023-08-17T14:29:18;17.60;99.90
22503;DHT22;11418;48.118;9.992;2023-08-17T14:33:19;17.60;99.90
22503;DHT22;11418;48.118;9.992;2023-08-17T14:37:20;17.60;99.90
22503;DHT22;11418;48.118;9.992;2023-08-17T14:41:20;17.70;99.90
22503;DHT22;11418;48.118;9.992;2023-08-17T14:45:21;17.90;99.90
22503;DHT22;11418;48.118;9.992;2023-08-17T14:49:22;18.40;99.90
22503;DHT22;11418;48.118;9.992;2023-08-17T14:53:22;19.00;99.90
22503;DHT22;11418;48.118;9.992;2023-08-17T14:57:23;19.30;99.90
22503;DHT22;11418;48.118;9.992;2023-08-17T15:01:23;19.10;99.90
22503;DHT22;11418;48.118;9.992;2023-08-17T15:05:24;19.20;99.90
22503;DHT22;11418;48.118;9.992;2023-08-17T15:09:25;19.10;99.90
22503;DHT22;11418;48.118;9.992;2023-08-17T15:13:25;19.20;99.90
22503;DHT22;11418;48.118;9.992;2023-08-17T15:17:26;19.30;99.90
22503;DHT22;11418;48.118;9.992;2023-08-17T15:21:26;19.90;99.90
22503;DHT22;11418;48.118;9.992;2023-08-17T15:25:27;20.60;99.90
22503;DHT22;11418;48.118;9.992;2023-08-17T15:29:28;21.80;99.90
22503;DHT22;11418;48.118;9.992;2023-08-17T15:33:28;23.30;99.90
22503;DHT22;11418;48.118;9.992;2023-08-17T15:37:29;24.00;99.90
22503;DHT22;11418;48.118;9.992;2023-08-17T15:41:30;23.90;99.90
22503;DHT22;11418;48.118;9.992;2023-08-17T15:45:31;24.70;99.90
22503;DHT22;11418;48.118;9.992;2023-08-17T15:49:31;24.70;99.90
22503;DHT22;11418;48.118;9.992;2023-08-17T15:53:32;23.60;99.90
22503;DHT22;11418;48.118;9.992;2023-08-17T15:57:32;22.70;99.90
22503;DHT22;11418;48.118;9.992;2023-08-17T16:01:33;22.00;99.90
22503;DHT22;11418;48.118;9.992;2023-08-17T16:05:34;21.50;99.90
22503;DHT22;11418;48.118;9.992;2023-08-17T16:09:34;20.90;99.90
22503;DHT22;11418;48.118;9.992;2023-08-17T16:13:35;20.20;99.90
22503;DHT22;11418;48.118;9.992;2023-08-17T16:17:35;20.00;99.90
22503;DHT22;11418;48.118;9.992;2023-08-17T16:21:36;19.80;99.90
22503;DHT22;11418;48.118;9.992;2023-08-17T16:25:36;19.60;99.90
22503;DHT22;11418;48.118;9.992;2023-08-17T16:29:37;19.60;99.90
22503;DHT22;11418;48.118;9.992;2023-08-17T16:33:38;19.60;99.90
22503;DHT22;11418;48.118;9.992;2023-08-17T16:37:42;19.60;99.90
22503;DHT22;11418;48.118;9.992;2023-08-17T16:41:42;19.40;99.90
22503;DHT22;11418;48.118;9.992;2023-08-17T16:45:43;19.30;99.90
22503;DHT22;11418;48.118;9.992;2023-08-17T16:49:43;19.20;99.90
22503;DHT22;11418;48.118;9.992;2023-08-17T16:53:44;19.20;99.90
22503;DHT22;11418;48.118;9.992;2023-08-17T16:57:49;19.20;99.90
22503;DHT22;11418;48.118;9.992;2023-08-17T17:01:52;19.00;99.90
22503;DHT22;11418;48.118;9.992;2023-08-17T17:05:53;18.70;99.90
22503;DHT22;11418;48.118;9.992;2023-08-17T17:09:54;18.40;99.90
22503;DHT22;11418;48.118;9.992;2023-08-17T17:13:54;18.30;99.90
22503;DHT22;11418;48.118;9.992;2023-08-17T17:17:55;18.40;99.90
22503;DHT22;11418;48.118;9.992;2023-08-17T17:21:57;18.30;99.90
22503;DHT22;11418;48.118;9.992;2023-08-17T17:25:58;18.30;99.90
22503;DHT22;11418;48.118;9.992;2023-08-17T17:29:58;18.30;99.90
22503;DHT22;11418;48.118;9.992;2023-08-17T17:33:59;18.30;99.90
22503;DHT22;11418;48.118;9.992;2023-08-17T17:38:00;18.20;99.90
22503;DHT22;11418;48.118;9.992;2023-08-17T17:42:00;18.20;99.90
22503;DHT22;11418;48.118;9.992;2023-08-17T17:46:01;18.10;99.90
22503;DHT22;11418;48.118;9.992;2023-08-17T17:50:05;18.70;99.90
22503;DHT22;11418;48.118;9.992;2023-08-17T17:54:06;18.50;99.90
22503;DHT22;11418;48.118;9.992;2023-08-17T17:58:07;18.20;99.90
22503;DHT22;11418;48.118;9.992;2023-08-17T18:02:08;18.20;99.90
22503;DHT22;11418;48.118;9.992;2023-08-17T18:06:08;18.10;99.90
22503;DHT22;11418;48.118;9.992;2023-08-17T18:10:09;18.20;99.90
22503;DHT22;11418;48.118;9.992;2023-08-17T18:14:09;18.30;99.90
22503;DHT22;11418;48.118;9.992;2023-08-17T18:18:10;18.30;99.90
22503;DHT22;11418;48.118;9.992;2023-08-17T18:22:11;18.20;99.90
22503;DHT22;11418;48.118;9.992;2023-08-17T18:26:11;18.00;99.90
22503;DHT22;11418;48.118;9.992;2023-08-17T18:30:12;18.20;99.90
22503;DHT22;11418;48.118;9.992;2023-08-17T18:34:12;18.20;99.90
22503;DHT22;11418;48.118;9.992;2023-08-17T18:38:13;18.00;99.90
22503;DHT22;11418;48.118;9.992;2023-08-17T18:42:14;17.90;99.90
22503;DHT22;11418;48.118;9.992;2023-08-17T18:46:14;17.80;99.90
22503;DHT22;11418;48.118;9.992;2023-08-17T18:50:15;17.70;99.90
22503;DHT22;11418;48.118;9.992;2023-08-17T18:54:16;17.90;99.90
22503;DHT22;11418;48.118;9.992;2023-08-17T18:58:18;18.00;99.90
22503;DHT22;11418;48.118;9.992;2023-08-17T19:02:18;17.90;99.90
22503;DHT22;11418;48.118;9.992;2023-08-17T19:06:19;17.80;99.90
22503;DHT22;11418;48.118;9.992;2023-08-17T19:10:20;17.90;99.90
22503;DHT22;11418;48.118;9.992;2023-08-17T19:14:20;17.70;99.90
22503;DHT22;11418;48.118;9.992;2023-08-17T19:18:21;17.70;99.90
22503;DHT22;11418;48.118;9.992;2023-08-17T19:22:21;17.50;99.90
22503;DHT22;11418;48.118;9.992;2023-08-17T19:26:22;17.40;99.90
22503;DHT22;11418;48.118;9.992;2023-08-17T19:30:22;17.40;99.90
22503;DHT22;11418;48.118;9.992;2023-08-17T19:34:23;17.40;99.90
22503;DHT22;11418;48.118;9.992;2023-08-17T19:38:24;17.30;99.90
22503;DHT22;11418;48.118;9.992;2023-08-17T19:42:24;17.20;99.90
22503;DHT22;11418;48.118;9.992;2023-08-17T19:46:25;17.60;99.90
22503;DHT22;11418;48.118;9.992;2023-08-17T19:50:26;17.80;99.90
22503;DHT22;11418;48.118;9.992;2023-08-17T19:54:26;17.90;99.90
22503;DHT22;11418;48.118;9.992;2023-08-17T19:58:27;17.90;99.90
22503;DHT22;11418;48.118;9.992;2023-08-17T20:02:27;17.80;99.90
22503;DHT22;11418;48.118;9.992;2023-08-17T20:06:29;17.70;99.90
22503;DHT22;11418;48.118;9.992;2023-08-17T20:10:30;17.40;99.90
22503;DHT22;11418;48.118;9.992;2023-08-17T20:14:33;17.40;99.90
22503;DHT22;11418;48.118;9.992;2023-08-17T20:18:34;17.20;99.90
22503;DHT22;11418;48.118;9.992;2023-08-17T20:22:35;17.10;99.90
22503;DHT22;11418;48.118;9.992;2023-08-17T20:26:35;16.90;99.90
22503;DHT22;11418;48.118;9.992;2023-08-17T20:30:36;16.80;99.90
22503;DHT22;11418;48.118;9.992;2023-08-17T20:34:37;16.70;99.90
22503;DHT22;11418;48.118;9.992;2023-08-17T20:38:37;16.60;99.90
22503;DHT22;11418;48.118;9.992;2023-08-17T20:42:38;16.70;99.90
22503;DHT22;11418;48.118;9.992;2023-08-17T20:46:38;16.70;99.90
22503;DHT22;11418;48.118;9.992;2023-08-17T20:50:39;16.60;99.90
22503;DHT22;11418;48.118;9.992;2023-08-17T20:54:40;16.50;99.90
22503;DHT22;11418;48.118;9.992;2023-08-17T20:58:42;16.70;99.90
22503;DHT22;11418;48.118;9.992;2023-08-17T21:02:42;16.60;99.90
22503;DHT22;11418;48.118;9.992;2023-08-17T21:06:43;16.40;99.90
22503;DHT22;11418;48.118;9.992;2023-08-17T21:10:43;16.20;99.90
22503;DHT22;11418;48.118;9.992;2023-08-17T21:14:45;16.20;99.90
22503;DHT22;11418;48.118;9.992;2023-08-17T21:18:47;16.00;99.90
22503;DHT22;11418;48.118;9.992;2023-08-17T21:22:48;16.00;99.90
22503;DHT22;11418;48.118;9.992;2023-08-17T21:26:51;16.40;99.90
22503;DHT22;11418;48.118;9.992;2023-08-17T21:30:52;16.30;99.90
22503;DHT22;11418;48.118;9.992;2023-08-17T21:34:53;16.30;99.90
22503;DHT22;11418;48.118;9.992;2023-08-17T21:38:53;16.20;99.90
22503;DHT22;11418;48.118;9.992;2023-08-17T21:42:54;16.00;99.90
22503;DHT22;11418;48.118;9.992;2023-08-17T21:46:55;16.00;99.90
22503;DHT22;11418;48.118;9.992;2023-08-17T21:50:57;16.00;99.90
22503;DHT22;11418;48.118;9.992;2023-08-17T21:54:57;16.10;99.90
22503;DHT22;11418;48.118;9.992;2023-08-17T21:58:58;16.50;99.90
22503;DHT22;11418;48.118;9.992;2023-08-17T22:02:59;16.60;99.90
22503;DHT22;11418;48.118;9.992;2023-08-17T22:07:02;16.40;99.90
22503;DHT22;11418;48.118;9.992;2023-08-17T22:11:03;16.60;99.90
22503;DHT22;11418;48.118;9.992;2023-08-17T22:15:04;16.30;99.90
22503;DHT22;11418;48.118;9.992;2023-08-17T22:19:04;16.00;99.90
22503;DHT22;11418;48.118;9.992;2023-08-17T22:23:05;15.90;99.90
22503;DHT22;11418;48.118;9.992;2023-08-17T22:27:06;15.90;99.90
22503;DHT22;11418;48.118;9.992;2023-08-17T22:31:07;15.80;99.90
22503;DHT22;11418;48.118;9.992;2023-08-17T22:35:10;15.90;99.90
22503;DHT22;11418;48.118;9.992;2023-08-17T22:39:10;16.00;99.90
22503;DHT22;11418;48.118;9.992;2023-08-17T22:43:11;16.10;99.90
22503;DHT22;11418;48.118;9.992;2023-08-17T22:47:11;16.40;99.90
22503;DHT22;11418;48.118;9.992;2023-08-17T22:51:12;16.50;99.90
22503;DHT22;11418;48.118;9.992;2023-08-17T22:55:14;16.20;99.90
22503;DHT22;11418;48.118;9.992;2023-08-17T22:59:14;15.90;99.90
22503;DHT22;11418;48.118;9.992;2023-08-17T23:03:15;15.60;99.90
22503;DHT22;11418;48.118;9.992;2023-08-17T23:07:15;15.40;99.90
22503;DHT22;11418;48.118;9.992;2023-08-17T23:11:16;15.30;99.90
22503;DHT22;11418;48.118;9.992;2023-08-17T23:15:16;15.30;99.90
22503;DHT22;11418;48.118;9.992;2023-08-17T23:19:17;15.40;99.90
22503;DHT22;11418;48.118;9.992;2023-08-17T23:23:18;15.30;99.90
22503;DHT22;11418;48.118;9.992;2023-08-17T23:27:18;15.20;99.90
22503;DHT22;11418;48.118;9.992;2023-08-17T23:31:19;15.30;99.90
22503;DHT22;11418;48.118;9.992;2023-08-17T23:35:19;15.30;99.90
22503;DHT22;11418;48.118;9.992;2023-08-17T23:39:20;15.60;99.90
22503;DHT22;11418;48.118;9.992;2023-08-17T23:43:21;15.40;99.90
22503;DHT22;11418;48.118;9.992;2023-08-17T23:47:21;15.20;99.90
22503;DHT22;11418;48.118;9.992;2023-08-17T23:51:22;15.00;99.90
22503;DHT22;11418;48.118;9.992;2023-08-17T23:55:22;14.90;99.90
22503;DHT22;11418;48.118;9.992;2023-08-17T23:59:23;15.20;99.90
